sensor_id;sensor_type;location;lat;lon;timestamp;temperature;humidity
34542;DHT22;20784;51.332;12.410;2023-07-31T00:00:35;17.20;99.90
34542;DHT22;20784;51.332;12.410;2023-07-31T00:03:01;17.30;99.90
34542;DHT22;20784;51.332;12.410;2023-07-31T00:05:30;17.20;99.90
34542;DHT22;20784;51.332;12.410;2023-07-31T00:07:55;17.20;99.90
34542;DHT22;20784;51.332;12.410;2023-07-31T00:10:24;17.30;99.90
34542;DHT22;20784;51.332;12.410;2023-07-31T00:12:50;17.20;99.90
34542;DHT22;20784;51.332;12.410;2023-07-31T00:15:15;17.20;99.90
34542;DHT22;20784;51.332;12.410;2023-07-31T00:17:41;17.20;99.90
34542;DHT22;20784;51.332;12.410;2023-07-31T00:20:07;17.30;99.90
34542;DHT22;20784;51.332;12.410;2023-07-31T00:22:33;17.30;99.90
34542;DHT22;20784;51.332;12.410;2023-07-31T00:24:58;17.50;99.90
34542;DHT22;20784;51.332;12.410;2023-07-31T00:27:28;17.30;99.90
34542;DHT22;20784;51.332;12.410;2023-07-31T00:29:55;17.30;99.90
34542;DHT22;20784;51.332;12.410;2023-07-31T00:32:24;17.20;99.90
34542;DHT22;20784;51.332;12.410;2023-07-31T00:34:50;17.20;99.90
34542;DHT22;20784;51.332;12.410;2023-07-31T00:37:15;17.10;99.90
34542;DHT22;20784;51.332;12.410;2023-07-31T00:39:41;17.30;99.90
34542;DHT22;20784;51.332;12.410;2023-07-31T00:42:14;17.50;99.90
34542;DHT22;20784;51.332;12.410;2023-07-31T00:44:40;17.20;99.90
34542;DHT22;20784;51.332;12.410;2023-07-31T00:47:05;17.20;99.90
34542;DHT22;20784;51.332;12.410;2023-07-31T00:49:31;17.20;99.90
34542;DHT22;20784;51.332;12.410;2023-07-31T00:51:57;17.30;99.90
34542;DHT22;20784;51.332;12.410;2023-07-31T00:54:23;17.30;99.90
34542;DHT22;20784;51.332;12.410;2023-07-31T00:56:50;17.30;99.90
34542;DHT22;20784;51.332;12.410;2023-07-31T00:59:18;17.30;99.90
34542;DHT22;20784;51.332;12.410;2023-07-31T01:01:44;17.30;99.90
34542;DHT22;20784;51.332;12.410;2023-07-31T01:04:10;17.30;99.90
34542;DHT22;20784;51.332;12.410;2023-07-31T01:09:40;17.30;99.90
34542;DHT22;20784;51.332;12.410;2023-07-31T01:12:09;17.30;99.90
34542;DHT22;20784;51.332;12.410;2023-07-31T01:14:38;17.40;99.90
34542;DHT22;20784;51.332;12.410;2023-07-31T01:17:04;17.40;99.90
34542;DHT22;20784;51.332;12.410;2023-07-31T01:19:30;17.40;99.90
34542;DHT22;20784;51.332;12.410;2023-07-31T01:25:25;17.50;99.90
34542;DHT22;20784;51.332;12.410;2023-07-31T01:28:03;17.50;99.90
34542;DHT22;20784;51.332;12.410;2023-07-31T01:30:34;17.50;99.90
34542;DHT22;20784;51.332;12.410;2023-07-31T01:33:03;17.60;99.90
34542;DHT22;20784;51.332;12.410;2023-07-31T01:35:36;17.60;99.90
34542;DHT22;20784;51.332;12.410;2023-07-31T01:38:03;17.50;99.90
34542;DHT22;20784;51.332;12.410;2023-07-31T01:40:28;17.60;99.90
34542;DHT22;20784;51.332;12.410;2023-07-31T01:42:54;17.60;99.90
34542;DHT22;20784;51.332;12.410;2023-07-31T01:45:20;17.60;99.90
34542;DHT22;20784;51.332;12.410;2023-07-31T01:47:45;17.60;99.90
34542;DHT22;20784;51.332;12.410;2023-07-31T01:50:14;17.60;99.90
34542;DHT22;20784;51.332;12.410;2023-07-31T01:52:39;17.60;99.90
34542;DHT22;20784;51.332;12.410;2023-07-31T01:55:05;17.60;99.90
34542;DHT22;20784;51.332;12.410;2023-07-31T01:57:34;17.60;99.90
34542;DHT22;20784;51.332;12.410;2023-07-31T02:00:05;17.50;99.90
34542;DHT22;20784;51.332;12.410;2023-07-31T02:02:31;17.40;99.90
34542;DHT22;20784;51.332;12.410;2023-07-31T02:04:57;17.40;99.90
34542;DHT22;20784;51.332;12.410;2023-07-31T02:07:22;17.30;99.90
34542;DHT22;20784;51.332;12.410;2023-07-31T02:09:48;17.30;99.90
34542;DHT22;20784;51.332;12.410;2023-07-31T02:12:17;17.40;99.90
34542;DHT22;20784;51.332;12.410;2023-07-31T02:14:43;17.40;99.90
34542;DHT22;20784;51.332;12.410;2023-07-31T02:17:09;17.40;99.90
34542;DHT22;20784;51.332;12.410;2023-07-31T02:19:34;17.40;99.90
34542;DHT22;20784;51.332;12.410;2023-07-31T02:22:00;17.40;99.90
34542;DHT22;20784;51.332;12.410;2023-07-31T02:24:28;17.50;99.90
34542;DHT22;20784;51.332;12.410;2023-07-31T02:26:54;17.50;99.90
34542;DHT22;20784;51.332;12.410;2023-07-31T02:29:19;17.30;99.90
34542;DHT22;20784;51.332;12.410;2023-07-31T02:31:45;17.30;99.90
34542;DHT22;20784;51.332;12.410;2023-07-31T02:34:10;17.30;99.90
34542;DHT22;20784;51.332;12.410;2023-07-31T02:36:36;17.40;99.90
34542;DHT22;20784;51.332;12.410;2023-07-31T02:39:02;17.30;99.90
34542;DHT22;20784;51.332;12.410;2023-07-31T02:41:27;17.40;99.90
34542;DHT22;20784;51.332;12.410;2023-07-31T02:43:53;17.40;99.90
34542;DHT22;20784;51.332;12.410;2023-07-31T02:46:19;18.10;99.90
34542;DHT22;20784;51.332;12.410;2023-07-31T02:48:45;17.40;99.90
34542;DHT22;20784;51.332;12.410;2023-07-31T02:51:14;17.30;99.90
34542;DHT22;20784;51.332;12.410;2023-07-31T02:53:39;17.30;99.90
34542;DHT22;20784;51.332;12.410;2023-07-31T02:56:07;17.30;99.90
34542;DHT22;20784;51.332;12.410;2023-07-31T02:58:33;17.40;99.90
34542;DHT22;20784;51.332;12.410;2023-07-31T03:00:59;17.20;99.90
34542;DHT22;20784;51.332;12.410;2023-07-31T03:03:30;17.20;99.90
34542;DHT22;20784;51.332;12.410;2023-07-31T03:05:59;17.20;99.90
34542;DHT22;20784;51.332;12.410;2023-07-31T03:08:24;16.90;99.90
34542;DHT22;20784;51.332;12.410;2023-07-31T03:10:50;17.30;99.90
34542;DHT22;20784;51.332;12.410;2023-07-31T03:13:15;17.20;99.90
34542;DHT22;20784;51.332;12.410;2023-07-31T03:15:44;17.50;99.90
34542;DHT22;20784;51.332;12.410;2023-07-31T03:18:12;17.10;99.90
34542;DHT22;20784;51.332;12.410;2023-07-31T03:20:42;17.00;99.90
34542;DHT22;20784;51.332;12.410;2023-07-31T03:23:10;16.90;99.90
34542;DHT22;20784;51.332;12.410;2023-07-31T03:25:36;17.00;99.90
34542;DHT22;20784;51.332;12.410;2023-07-31T03:28:02;17.60;99.90
34542;DHT22;20784;51.332;12.410;2023-07-31T03:30:27;17.00;99.90
34542;DHT22;20784;51.332;12.410;2023-07-31T03:32:53;17.40;99.90
34542;DHT22;20784;51.332;12.410;2023-07-31T03:35:19;16.90;99.90
34542;DHT22;20784;51.332;12.410;2023-07-31T03:37:44;17.00;99.90
34542;DHT22;20784;51.332;12.410;2023-07-31T03:40:12;17.00;99.90
34542;DHT22;20784;51.332;12.410;2023-07-31T03:42:41;17.20;99.90
34542;DHT22;20784;51.332;12.410;2023-07-31T03:45:07;16.90;99.90
34542;DHT22;20784;51.332;12.410;2023-07-31T03:47:33;16.80;99.90
34542;DHT22;20784;51.332;12.410;2023-07-31T03:49:58;16.80;99.90
34542;DHT22;20784;51.332;12.410;2023-07-31T03:52:24;16.80;99.90
34542;DHT22;20784;51.332;12.410;2023-07-31T03:54:49;16.80;99.90
34542;DHT22;20784;51.332;12.410;2023-07-31T03:57:15;16.80;99.90
34542;DHT22;20784;51.332;12.410;2023-07-31T03:59:45;16.70;99.90
34542;DHT22;20784;51.332;12.410;2023-07-31T04:02:11;16.70;99.90
34542;DHT22;20784;51.332;12.410;2023-07-31T04:04:36;16.70;99.90
34542;DHT22;20784;51.332;12.410;2023-07-31T04:07:05;16.70;99.90
34542;DHT22;20784;51.332;12.410;2023-07-31T04:09:31;16.70;99.90
34542;DHT22;20784;51.332;12.410;2023-07-31T04:11:56;16.70;99.90
34542;DHT22;20784;51.332;12.410;2023-07-31T04:14:23;16.70;99.90
34542;DHT22;20784;51.332;12.410;2023-07-31T04:16:51;16.70;99.90
34542;DHT22;20784;51.332;12.410;2023-07-31T04:19:17;16.70;99.90
34542;DHT22;20784;51.332;12.410;2023-07-31T04:21:43;16.60;99.90
34542;DHT22;20784;51.332;12.410;2023-07-31T04:24:09;16.70;99.90
34542;DHT22;20784;51.332;12.410;2023-07-31T04:26:34;16.70;99.90
34542;DHT22;20784;51.332;12.410;2023-07-31T04:29:00;16.70;99.90
34542;DHT22;20784;51.332;12.410;2023-07-31T04:31:26;16.70;99.90
34542;DHT22;20784;51.332;12.410;2023-07-31T04:33:51;16.40;99.90
34542;DHT22;20784;51.332;12.410;2023-07-31T04:36:17;16.80;99.90
34542;DHT22;20784;51.332;12.410;2023-07-31T04:38:42;16.60;99.90
34542;DHT22;20784;51.332;12.410;2023-07-31T04:41:08;16.60;99.90
34542;DHT22;20784;51.332;12.410;2023-07-31T04:43:34;16.60;99.90
34542;DHT22;20784;51.332;12.410;2023-07-31T04:45:59;16.50;99.90
34542;DHT22;20784;51.332;12.410;2023-07-31T04:48:27;16.60;99.90
34542;DHT22;20784;51.332;12.410;2023-07-31T04:50:53;16.60;99.90
34542;DHT22;20784;51.332;12.410;2023-07-31T04:53:24;16.50;99.90
34542;DHT22;20784;51.332;12.410;2023-07-31T04:55:50;16.50;99.90
34542;DHT22;20784;51.332;12.410;2023-07-31T04:58:16;16.20;99.90
34542;DHT22;20784;51.332;12.410;2023-07-31T05:00:53;16.50;99.90
34542;DHT22;20784;51.332;12.410;2023-07-31T05:03:18;16.50;99.90
34542;DHT22;20784;51.332;12.410;2023-07-31T05:05:44;16.40;99.90
34542;DHT22;20784;51.332;12.410;2023-07-31T05:08:13;16.40;99.90
34542;DHT22;20784;51.332;12.410;2023-07-31T05:10:39;16.40;99.90
34542;DHT22;20784;51.332;12.410;2023-07-31T05:13:04;16.90;99.90
34542;DHT22;20784;51.332;12.410;2023-07-31T05:15:33;16.30;99.90
34542;DHT22;20784;51.332;12.410;2023-07-31T05:17:59;16.30;99.90
34542;DHT22;20784;51.332;12.410;2023-07-31T05:20:24;16.80;99.90
34542;DHT22;20784;51.332;12.410;2023-07-31T05:22:51;16.20;99.90
34542;DHT22;20784;51.332;12.410;2023-07-31T05:25:16;16.00;99.90
34542;DHT22;20784;51.332;12.410;2023-07-31T05:27:42;16.20;99.90
34542;DHT22;20784;51.332;12.410;2023-07-31T05:30:11;16.30;99.90
34542;DHT22;20784;51.332;12.410;2023-07-31T05:32:37;16.30;99.90
34542;DHT22;20784;51.332;12.410;2023-07-31T05:35:02;16.30;99.90
34542;DHT22;20784;51.332;12.410;2023-07-31T05:37:31;16.30;99.90
34542;DHT22;20784;51.332;12.410;2023-07-31T05:39:57;16.30;99.90
34542;DHT22;20784;51.332;12.410;2023-07-31T05:42:22;16.50;99.90
34542;DHT22;20784;51.332;12.410;2023-07-31T05:44:48;16.40;99.90
34542;DHT22;20784;51.332;12.410;2023-07-31T05:47:16;16.40;99.90
34542;DHT22;20784;51.332;12.410;2023-07-31T05:49:42;16.40;99.90
34542;DHT22;20784;51.332;12.410;2023-07-31T05:52:07;16.70;99.90
34542;DHT22;20784;51.332;12.410;2023-07-31T05:54:36;16.50;99.90
34542;DHT22;20784;51.332;12.410;2023-07-31T05:57:04;16.40;99.90
34542;DHT22;20784;51.332;12.410;2023-07-31T05:59:32;16.60;99.90
34542;DHT22;20784;51.332;12.410;2023-07-31T06:01:59;16.60;99.90
34542;DHT22;20784;51.332;12.410;2023-07-31T06:04:25;16.50;99.90
34542;DHT22;20784;51.332;12.410;2023-07-31T06:06:51;16.60;99.90
34542;DHT22;20784;51.332;12.410;2023-07-31T06:09:17;16.50;99.90
34542;DHT22;20784;51.332;12.410;2023-07-31T06:11:42;16.60;99.90
34542;DHT22;20784;51.332;12.410;2023-07-31T06:14:11;16.60;99.90
34542;DHT22;20784;51.332;12.410;2023-07-31T06:16:37;16.60;99.90
34542;DHT22;20784;51.332;12.410;2023-07-31T06:19:02;16.50;99.90
34542;DHT22;20784;51.332;12.410;2023-07-31T06:21:28;16.60;99.90
34542;DHT22;20784;51.332;12.410;2023-07-31T06:23:57;16.60;99.90
34542;DHT22;20784;51.332;12.410;2023-07-31T06:26:23;16.70;99.90
34542;DHT22;20784;51.332;12.410;2023-07-31T06:28:48;17.00;99.90
34542;DHT22;20784;51.332;12.410;2023-07-31T06:31:21;16.80;99.90
34542;DHT22;20784;51.332;12.410;2023-07-31T06:33:51;16.80;99.90
34542;DHT22;20784;51.332;12.410;2023-07-31T06:36:18;18.10;99.90
34542;DHT22;20784;51.332;12.410;2023-07-31T06:38:43;17.00;99.90
34542;DHT22;20784;51.332;12.410;2023-07-31T06:41:09;17.00;99.90
34542;DHT22;20784;51.332;12.410;2023-07-31T06:43:36;17.00;99.90
34542;DHT22;20784;51.332;12.410;2023-07-31T06:46:05;17.10;99.90
34542;DHT22;20784;51.332;12.410;2023-07-31T06:48:32;17.00;99.90
34542;DHT22;20784;51.332;12.410;2023-07-31T06:50:57;17.10;99.90
34542;DHT22;20784;51.332;12.410;2023-07-31T06:53:23;17.20;99.90
34542;DHT22;20784;51.332;12.410;2023-07-31T06:55:48;17.20;99.90
34542;DHT22;20784;51.332;12.410;2023-07-31T06:58:17;17.30;99.90
34542;DHT22;20784;51.332;12.410;2023-07-31T07:00:42;17.30;99.90
34542;DHT22;20784;51.332;12.410;2023-07-31T07:03:11;17.30;99.90
34542;DHT22;20784;51.332;12.410;2023-07-31T07:05:36;17.40;99.90
34542;DHT22;20784;51.332;12.410;2023-07-31T07:08:02;17.50;99.90
34542;DHT22;20784;51.332;12.410;2023-07-31T07:10:28;17.40;99.90
34542;DHT22;20784;51.332;12.410;2023-07-31T07:12:54;17.40;99.90
34542;DHT22;20784;51.332;12.410;2023-07-31T07:15:20;17.30;99.90
34542;DHT22;20784;51.332;12.410;2023-07-31T07:17:46;17.30;99.90
34542;DHT22;20784;51.332;12.410;2023-07-31T07:20:15;17.40;99.90
34542;DHT22;20784;51.332;12.410;2023-07-31T07:22:40;17.80;99.90
34542;DHT22;20784;51.332;12.410;2023-07-31T07:25:08;17.40;99.90
34542;DHT22;20784;51.332;12.410;2023-07-31T07:27:34;17.50;99.90
34542;DHT22;20784;51.332;12.410;2023-07-31T07:30:00;18.00;99.90
34542;DHT22;20784;51.332;12.410;2023-07-31T07:32:28;17.60;99.90
34542;DHT22;20784;51.332;12.410;2023-07-31T07:34:55;18.00;99.90
34542;DHT22;20784;51.332;12.410;2023-07-31T07:37:23;17.70;99.90
34542;DHT22;20784;51.332;12.410;2023-07-31T07:39:52;18.10;99.90
34542;DHT22;20784;51.332;12.410;2023-07-31T07:42:18;18.00;99.90
34542;DHT22;20784;51.332;12.410;2023-07-31T07:44:46;17.80;99.90
34542;DHT22;20784;51.332;12.410;2023-07-31T07:47:12;17.70;99.90
34542;DHT22;20784;51.332;12.410;2023-07-31T07:49:38;17.80;99.90
34542;DHT22;20784;51.332;12.410;2023-07-31T07:52:04;18.50;99.90
34542;DHT22;20784;51.332;12.410;2023-07-31T07:54:30;17.90;99.90
34542;DHT22;20784;51.332;12.410;2023-07-31T07:56:56;18.00;99.90
34542;DHT22;20784;51.332;12.410;2023-07-31T07:59:22;18.00;99.90
34542;DHT22;20784;51.332;12.410;2023-07-31T08:01:50;18.10;99.90
34542;DHT22;20784;51.332;12.410;2023-07-31T08:04:16;18.20;99.90
34542;DHT22;20784;51.332;12.410;2023-07-31T08:06:41;18.10;99.90
34542;DHT22;20784;51.332;12.410;2023-07-31T08:09:12;18.90;99.90
34542;DHT22;20784;51.332;12.410;2023-07-31T08:11:38;18.30;99.90
34542;DHT22;20784;51.332;12.410;2023-07-31T08:14:03;18.40;99.90
34542;DHT22;20784;51.332;12.410;2023-07-31T08:16:29;18.30;99.90
34542;DHT22;20784;51.332;12.410;2023-07-31T08:18:54;18.30;99.90
34542;DHT22;20784;51.332;12.410;2023-07-31T08:21:21;18.30;99.90
34542;DHT22;20784;51.332;12.410;2023-07-31T08:23:50;18.30;99.90
34542;DHT22;20784;51.332;12.410;2023-07-31T08:26:18;18.40;99.90
34542;DHT22;20784;51.332;12.410;2023-07-31T08:28:44;18.40;99.90
34542;DHT22;20784;51.332;12.410;2023-07-31T08:31:10;18.40;99.90
34542;DHT22;20784;51.332;12.410;2023-07-31T08:33:36;18.40;99.90
34542;DHT22;20784;51.332;12.410;2023-07-31T08:36:02;18.90;99.90
34542;DHT22;20784;51.332;12.410;2023-07-31T08:38:28;18.60;99.90
34542;DHT22;20784;51.332;12.410;2023-07-31T08:41:00;18.80;99.90
34542;DHT22;20784;51.332;12.410;2023-07-31T08:43:28;18.70;99.90
34542;DHT22;20784;51.332;12.410;2023-07-31T08:45:54;19.20;99.90
34542;DHT22;20784;51.332;12.410;2023-07-31T08:48:21;18.90;99.90
34542;DHT22;20784;51.332;12.410;2023-07-31T08:50:47;19.00;99.90
34542;DHT22;20784;51.332;12.410;2023-07-31T08:53:13;19.00;99.90
34542;DHT22;20784;51.332;12.410;2023-07-31T08:55:40;18.90;99.90
34542;DHT22;20784;51.332;12.410;2023-07-31T08:58:09;19.10;99.90
34542;DHT22;20784;51.332;12.410;2023-07-31T09:00:38;19.10;99.90
34542;DHT22;20784;51.332;12.410;2023-07-31T09:03:11;19.00;99.90
34542;DHT22;20784;51.332;12.410;2023-07-31T09:05:38;19.20;99.90
34542;DHT22;20784;51.332;12.410;2023-07-31T09:08:07;19.10;99.90
34542;DHT22;20784;51.332;12.410;2023-07-31T09:10:34;19.30;99.90
34542;DHT22;20784;51.332;12.410;2023-07-31T09:13:00;19.10;99.90
34542;DHT22;20784;51.332;12.410;2023-07-31T09:15:27;19.10;99.90
34542;DHT22;20784;51.332;12.410;2023-07-31T09:18:01;19.20;99.90
34542;DHT22;20784;51.332;12.410;2023-07-31T09:20:27;19.20;99.90
34542;DHT22;20784;51.332;12.410;2023-07-31T09:22:55;19.20;99.90
34542;DHT22;20784;51.332;12.410;2023-07-31T09:25:28;19.20;99.90
34542;DHT22;20784;51.332;12.410;2023-07-31T09:27:59;19.30;99.90
34542;DHT22;20784;51.332;12.410;2023-07-31T09:30:28;19.40;99.90
34542;DHT22;20784;51.332;12.410;2023-07-31T09:33:04;19.40;99.90
34542;DHT22;20784;51.332;12.410;2023-07-31T09:35:35;19.80;99.90
34542;DHT22;20784;51.332;12.410;2023-07-31T09:38:03;19.50;99.90
34542;DHT22;20784;51.332;12.410;2023-07-31T09:40:37;19.50;99.90
34542;DHT22;20784;51.332;12.410;2023-07-31T09:43:08;19.50;99.90
34542;DHT22;20784;51.332;12.410;2023-07-31T09:45:40;19.70;99.90
34542;DHT22;20784;51.332;12.410;2023-07-31T09:48:11;20.00;99.90
34542;DHT22;20784;51.332;12.410;2023-07-31T09:50:38;19.50;99.90
34542;DHT22;20784;51.332;12.410;2023-07-31T09:53:05;19.50;99.90
34542;DHT22;20784;51.332;12.410;2023-07-31T09:55:31;19.50;99.90
34542;DHT22;20784;51.332;12.410;2023-07-31T09:58:06;19.50;99.90
34542;DHT22;20784;51.332;12.410;2023-07-31T10:00:32;19.50;99.90
34542;DHT22;20784;51.332;12.410;2023-07-31T10:03:00;19.50;99.90
34542;DHT22;20784;51.332;12.410;2023-07-31T10:05:31;19.60;99.90
34542;DHT22;20784;51.332;12.410;2023-07-31T10:07:58;19.60;99.90
34542;DHT22;20784;51.332;12.410;2023-07-31T10:10:25;19.60;99.90
34542;DHT22;20784;51.332;12.410;2023-07-31T10:12:52;19.60;99.90
34542;DHT22;20784;51.332;12.410;2023-07-31T10:15:18;19.90;99.90
34542;DHT22;20784;51.332;12.410;2023-07-31T10:17:44;19.90;99.90
34542;DHT22;20784;51.332;12.410;2023-07-31T10:20:10;19.90;99.90
34542;DHT22;20784;51.332;12.410;2023-07-31T10:22:36;20.10;99.90
34542;DHT22;20784;51.332;12.410;2023-07-31T10:25:02;21.00;99.90
34542;DHT22;20784;51.332;12.410;2023-07-31T10:27:28;20.40;99.90
34542;DHT22;20784;51.332;12.410;2023-07-31T10:29:58;20.60;99.90
34542;DHT22;20784;51.332;12.410;2023-07-31T10:32:25;20.60;99.90
34542;DHT22;20784;51.332;12.410;2023-07-31T10:34:51;20.60;99.90
34542;DHT22;20784;51.332;12.410;2023-07-31T10:37:24;20.70;99.90
34542;DHT22;20784;51.332;12.410;2023-07-31T10:40:03;20.70;99.90
34542;DHT22;20784;51.332;12.410;2023-07-31T10:42:31;21.20;99.90
34542;DHT22;20784;51.332;12.410;2023-07-31T10:44:59;20.80;99.90
34542;DHT22;20784;51.332;12.410;2023-07-31T10:47:24;20.70;99.90
34542;DHT22;20784;51.332;12.410;2023-07-31T10:49:50;20.70;99.90
34542;DHT22;20784;51.332;12.410;2023-07-31T10:52:20;20.70;99.90
34542;DHT22;20784;51.332;12.410;2023-07-31T10:54:49;20.70;99.90
34542;DHT22;20784;51.332;12.410;2023-07-31T10:57:20;20.70;99.90
34542;DHT22;20784;51.332;12.410;2023-07-31T10:59:47;20.80;99.90
34542;DHT22;20784;51.332;12.410;2023-07-31T11:02:26;21.00;99.90
34542;DHT22;20784;51.332;12.410;2023-07-31T11:05:08;21.20;99.90
34542;DHT22;20784;51.332;12.410;2023-07-31T11:07:48;21.30;99.90
34542;DHT22;20784;51.332;12.410;2023-07-31T11:10:17;21.50;99.90
34542;DHT22;20784;51.332;12.410;2023-07-31T11:12:42;21.50;99.90
34542;DHT22;20784;51.332;12.410;2023-07-31T11:15:08;21.70;99.90
34542;DHT22;20784;51.332;12.410;2023-07-31T11:17:39;21.70;99.90
34542;DHT22;20784;51.332;12.410;2023-07-31T11:20:05;21.80;99.90
34542;DHT22;20784;51.332;12.410;2023-07-31T11:22:31;21.90;99.90
34542;DHT22;20784;51.332;12.410;2023-07-31T11:24:58;21.90;99.90
34542;DHT22;20784;51.332;12.410;2023-07-31T11:27:27;22.40;99.90
34542;DHT22;20784;51.332;12.410;2023-07-31T11:30:00;22.30;99.90
34542;DHT22;20784;51.332;12.410;2023-07-31T11:32:26;22.50;99.90
34542;DHT22;20784;51.332;12.410;2023-07-31T11:34:54;23.00;99.90
34542;DHT22;20784;51.332;12.410;2023-07-31T11:37:23;22.80;99.90
34542;DHT22;20784;51.332;12.410;2023-07-31T11:40:04;22.80;99.90
34542;DHT22;20784;51.332;12.410;2023-07-31T11:42:30;22.70;99.90
34542;DHT22;20784;51.332;12.410;2023-07-31T11:45:05;22.70;99.90
34542;DHT22;20784;51.332;12.410;2023-07-31T11:47:36;22.70;99.90
34542;DHT22;20784;51.332;12.410;2023-07-31T11:50:04;22.70;99.90
34542;DHT22;20784;51.332;12.410;2023-07-31T11:52:35;22.30;99.90
34542;DHT22;20784;51.332;12.410;2023-07-31T11:55:01;22.20;99.90
34542;DHT22;20784;51.332;12.410;2023-07-31T11:57:28;22.10;99.90
34542;DHT22;20784;51.332;12.410;2023-07-31T11:59:55;22.10;99.90
34542;DHT22;20784;51.332;12.410;2023-07-31T12:02:21;22.00;99.90
34542;DHT22;20784;51.332;12.410;2023-07-31T12:04:47;22.00;99.90
34542;DHT22;20784;51.332;12.410;2023-07-31T12:07:16;21.90;99.90
34542;DHT22;20784;51.332;12.410;2023-07-31T12:09:52;21.80;99.90
34542;DHT22;20784;51.332;12.410;2023-07-31T12:12:22;21.90;99.90
34542;DHT22;20784;51.332;12.410;2023-07-31T12:14:51;21.90;99.90
34542;DHT22;20784;51.332;12.410;2023-07-31T12:17:19;21.90;99.90
34542;DHT22;20784;51.332;12.410;2023-07-31T12:19:45;21.80;99.90
34542;DHT22;20784;51.332;12.410;2023-07-31T12:22:15;22.00;99.90
34542;DHT22;20784;51.332;12.410;2023-07-31T12:24:42;21.90;99.90
34542;DHT22;20784;51.332;12.410;2023-07-31T12:27:14;21.90;99.90
34542;DHT22;20784;51.332;12.410;2023-07-31T12:29:41;21.90;99.90
34542;DHT22;20784;51.332;12.410;2023-07-31T12:32:29;21.90;99.90
34542;DHT22;20784;51.332;12.410;2023-07-31T12:34:59;22.20;99.90
34542;DHT22;20784;51.332;12.410;2023-07-31T12:37:28;22.20;99.90
34542;DHT22;20784;51.332;12.410;2023-07-31T12:39:57;22.20;99.90
34542;DHT22;20784;51.332;12.410;2023-07-31T12:42:26;22.30;99.90
34542;DHT22;20784;51.332;12.410;2023-07-31T12:44:52;22.50;99.90
34542;DHT22;20784;51.332;12.410;2023-07-31T12:47:17;22.50;99.90
34542;DHT22;20784;51.332;12.410;2023-07-31T12:49:43;22.70;99.90
34542;DHT22;20784;51.332;12.410;2023-07-31T12:52:13;22.80;99.90
34542;DHT22;20784;51.332;12.410;2023-07-31T12:54:44;22.80;99.90
34542;DHT22;20784;51.332;12.410;2023-07-31T12:57:13;22.70;99.90
34542;DHT22;20784;51.332;12.410;2023-07-31T12:59:39;22.60;99.90
34542;DHT22;20784;51.332;12.410;2023-07-31T13:02:08;22.50;99.90
34542;DHT22;20784;51.332;12.410;2023-07-31T13:04:34;22.80;99.90
34542;DHT22;20784;51.332;12.410;2023-07-31T13:07:00;22.70;99.90
34542;DHT22;20784;51.332;12.410;2023-07-31T13:09:25;23.30;99.90
34542;DHT22;20784;51.332;12.410;2023-07-31T13:11:54;23.90;99.90
34542;DHT22;20784;51.332;12.410;2023-07-31T13:14:30;23.80;99.90
34542;DHT22;20784;51.332;12.410;2023-07-31T13:16:55;24.00;99.90
34542;DHT22;20784;51.332;12.410;2023-07-31T13:19:21;24.00;99.90
34542;DHT22;20784;51.332;12.410;2023-07-31T13:21:47;24.30;99.90
34542;DHT22;20784;51.332;12.410;2023-07-31T13:24:17;23.90;99.90
34542;DHT22;20784;51.332;12.410;2023-07-31T13:26:43;23.90;99.90
34542;DHT22;20784;51.332;12.410;2023-07-31T13:29:09;24.50;99.90
34542;DHT22;20784;51.332;12.410;2023-07-31T13:31:34;23.80;99.90
34542;DHT22;20784;51.332;12.410;2023-07-31T13:34:00;23.80;99.90
34542;DHT22;20784;51.332;12.410;2023-07-31T13:36:25;24.10;99.90
34542;DHT22;20784;51.332;12.410;2023-07-31T13:38:51;24.00;99.90
34542;DHT22;20784;51.332;12.410;2023-07-31T13:41:19;23.90;99.90
34542;DHT22;20784;51.332;12.410;2023-07-31T13:43:45;24.40;99.90
34542;DHT22;20784;51.332;12.410;2023-07-31T13:46:16;24.00;99.90
34542;DHT22;20784;51.332;12.410;2023-07-31T13:48:42;23.80;99.90
34542;DHT22;20784;51.332;12.410;2023-07-31T13:51:10;23.70;99.90
34542;DHT22;20784;51.332;12.410;2023-07-31T13:53:35;24.20;99.90
34542;DHT22;20784;51.332;12.410;2023-07-31T13:56:01;23.50;99.90
34542;DHT22;20784;51.332;12.410;2023-07-31T13:58:35;23.40;99.90
34542;DHT22;20784;51.332;12.410;2023-07-31T14:01:04;22.90;99.90
34542;DHT22;20784;51.332;12.410;2023-07-31T14:03:30;23.00;99.90
34542;DHT22;20784;51.332;12.410;2023-07-31T14:05:58;22.90;99.90
34542;DHT22;20784;51.332;12.410;2023-07-31T14:08:24;22.90;99.90
34542;DHT22;20784;51.332;12.410;2023-07-31T14:10:50;22.80;99.90
34542;DHT22;20784;51.332;12.410;2023-07-31T14:13:26;22.80;99.90
34542;DHT22;20784;51.332;12.410;2023-07-31T14:15:59;22.80;99.90
34542;DHT22;20784;51.332;12.410;2023-07-31T14:18:25;22.60;99.90
34542;DHT22;20784;51.332;12.410;2023-07-31T14:20:51;22.60;99.90
34542;DHT22;20784;51.332;12.410;2023-07-31T14:23:17;22.50;99.90
34542;DHT22;20784;51.332;12.410;2023-07-31T14:25:45;22.50;99.90
34542;DHT22;20784;51.332;12.410;2023-07-31T14:28:11;22.50;99.90
34542;DHT22;20784;51.332;12.410;2023-07-31T14:30:37;22.40;99.90
34542;DHT22;20784;51.332;12.410;2023-07-31T14:33:05;22.30;99.90
34542;DHT22;20784;51.332;12.410;2023-07-31T14:35:43;22.30;99.90
34542;DHT22;20784;51.332;12.410;2023-07-31T14:38:08;22.30;99.90
34542;DHT22;20784;51.332;12.410;2023-07-31T14:40:37;22.30;99.90
34542;DHT22;20784;51.332;12.410;2023-07-31T14:43:03;22.40;99.90
34542;DHT22;20784;51.332;12.410;2023-07-31T14:45:29;22.50;99.90
34542;DHT22;20784;51.332;12.410;2023-07-31T14:47:55;22.60;99.90
34542;DHT22;20784;51.332;12.410;2023-07-31T14:50:21;22.70;99.90
34542;DHT22;20784;51.332;12.410;2023-07-31T14:52:54;22.70;99.90
34542;DHT22;20784;51.332;12.410;2023-07-31T14:55:23;22.60;99.90
34542;DHT22;20784;51.332;12.410;2023-07-31T14:57:51;22.40;99.90
34542;DHT22;20784;51.332;12.410;2023-07-31T15:00:20;22.40;99.90
34542;DHT22;20784;51.332;12.410;2023-07-31T15:02:49;22.40;99.90
34542;DHT22;20784;51.332;12.410;2023-07-31T15:05:17;22.30;99.90
34542;DHT22;20784;51.332;12.410;2023-07-31T15:07:43;22.20;99.90
34542;DHT22;20784;51.332;12.410;2023-07-31T15:10:09;22.40;99.90
34542;DHT22;20784;51.332;12.410;2023-07-31T15:12:39;22.20;99.90
34542;DHT22;20784;51.332;12.410;2023-07-31T15:15:05;22.30;99.90
34542;DHT22;20784;51.332;12.410;2023-07-31T15:17:31;22.20;99.90
34542;DHT22;20784;51.332;12.410;2023-07-31T15:19:57;22.30;99.90
34542;DHT22;20784;51.332;12.410;2023-07-31T15:22:28;22.30;99.90